sensor_id;sensor_type;location;lat;lon;timestamp;P1;durP1;ratioP1;P2;durP2;ratioP2
22502;SDS011;11418;48.118;9.992;2022-09-06T00:03:51;9.40;;;5.30;;
22502;SDS011;11418;48.118;9.992;2022-09-06T00:07:51;6.93;;;5.63;;
22502;SDS011;11418;48.118;9.992;2022-09-06T00:11:52;9.15;;;5.32;;
22502;SDS011;11418;48.118;9.992;2022-09-06T00:15:53;7.78;;;6.25;;
22502;SDS011;11418;48.118;9.992;2022-09-06T00:19:53;9.25;;;6.50;;
22502;SDS011;11418;48.118;9.992;2022-09-06T00:23:54;8.35;;;6.25;;
22502;SDS011;11418;48.118;9.992;2022-09-06T00:27:55;6.72;;;5.60;;
22502;SDS011;11418;48.118;9.992;2022-09-06T00:31:57;6.80;;;5.63;;
22502;SDS011;11418;48.118;9.992;2022-09-06T00:35:58;8.80;;;5.70;;
22502;SDS011;11418;48.118;9.992;2022-09-06T00:39:59;6.90;;;5.10;;
22502;SDS011;11418;48.118;9.992;2022-09-06T00:44:00;5.90;;;4.72;;
22502;SDS011;11418;48.118;9.992;2022-09-06T00:48:00;8.40;;;4.95;;
22502;SDS011;11418;48.118;9.992;2022-09-06T00:52:08;5.82;;;4.57;;
22502;SDS011;11418;48.118;9.992;2022-09-06T00:56:11;5.25;;;4.60;;
22502;SDS011;11418;48.118;9.992;2022-09-06T01:00:12;6.75;;;4.72;;
22502;SDS011;11418;48.118;9.992;2022-09-06T01:04:15;6.38;;;4.90;;
22502;SDS011;11418;48.118;9.992;2022-09-06T01:08:20;7.47;;;5.25;;
22502;SDS011;11418;48.118;9.992;2022-09-06T01:30:35;6.68;;;5.03;;
22502;SDS011;11418;48.118;9.992;2022-09-06T01:34:44;6.30;;;4.75;;
22502;SDS011;11418;48.118;9.992;2022-09-06T01:38:54;8.55;;;5.68;;
22502;SDS011;11418;48.118;9.992;2022-09-06T01:42:55;7.38;;;5.40;;
22502;SDS011;11418;48.118;9.992;2022-09-06T01:55:38;7.70;;;5.25;;
22502;SDS011;11418;48.118;9.992;2022-09-06T02:00:04;7.15;;;5.45;;
22502;SDS011;11418;48.118;9.992;2022-09-06T02:04:11;6.43;;;5.00;;
22502;SDS011;11418;48.118;9.992;2022-09-06T02:08:30;9.10;;;5.35;;
22502;SDS011;11418;48.118;9.992;2022-09-06T02:12:34;6.78;;;4.80;;
22502;SDS011;11418;48.118;9.992;2022-09-06T02:16:38;7.35;;;5.00;;
22502;SDS011;11418;48.118;9.992;2022-09-06T02:20:44;6.85;;;5.15;;
22502;SDS011;11418;48.118;9.992;2022-09-06T02:24:51;6.37;;;5.23;;
22502;SDS011;11418;48.118;9.992;2022-09-06T02:28:55;5.95;;;5.20;;
22502;SDS011;11418;48.118;9.992;2022-09-06T02:32:57;5.90;;;5.05;;
22502;SDS011;11418;48.118;9.992;2022-09-06T02:37:01;8.73;;;5.25;;
22502;SDS011;11418;48.118;9.992;2022-09-06T02:41:02;8.07;;;5.47;;
22502;SDS011;11418;48.118;9.992;2022-09-06T02:45:04;13.18;;;5.82;;
22502;SDS011;11418;48.118;9.992;2022-09-06T02:49:05;7.35;;;4.75;;
22502;SDS011;11418;48.118;9.992;2022-09-06T02:53:10;9.73;;;5.38;;
22502;SDS011;11418;48.118;9.992;2022-09-06T02:57:11;8.80;;;6.25;;
22502;SDS011;11418;48.118;9.992;2022-09-06T03:01:12;7.90;;;5.63;;
22502;SDS011;11418;48.118;9.992;2022-09-06T03:05:12;7.35;;;5.35;;
22502;SDS011;11418;48.118;9.992;2022-09-06T03:09:13;6.22;;;5.20;;
22502;SDS011;11418;48.118;9.992;2022-09-06T03:13:13;8.00;;;6.15;;
22502;SDS011;11418;48.118;9.992;2022-09-06T03:17:14;9.73;;;5.97;;
22502;SDS011;11418;48.118;9.992;2022-09-06T03:21:15;7.03;;;5.88;;
22502;SDS011;11418;48.118;9.992;2022-09-06T03:25:15;6.60;;;5.63;;
22502;SDS011;11418;48.118;9.992;2022-09-06T03:29:16;8.20;;;6.30;;
22502;SDS011;11418;48.118;9.992;2022-09-06T03:33:17;10.10;;;6.22;;
22502;SDS011;11418;48.118;9.992;2022-09-06T03:37:18;7.07;;;5.30;;
22502;SDS011;11418;48.118;9.992;2022-09-06T03:41:19;9.52;;;5.13;;
22502;SDS011;11418;48.118;9.992;2022-09-06T03:45:19;8.30;;;5.35;;
22502;SDS011;11418;48.118;9.992;2022-09-06T03:49:20;7.60;;;5.93;;
22502;SDS011;11418;48.118;9.992;2022-09-06T03:53:21;8.75;;;5.78;;
22502;SDS011;11418;48.118;9.992;2022-09-06T03:57:23;10.80;;;6.13;;
22502;SDS011;11418;48.118;9.992;2022-09-06T04:01:24;7.18;;;5.72;;
22502;SDS011;11418;48.118;9.992;2022-09-06T04:05:25;8.75;;;5.75;;
22502;SDS011;11418;48.118;9.992;2022-09-06T04:09:25;9.98;;;6.00;;
22502;SDS011;11418;48.118;9.992;2022-09-06T04:13:26;10.15;;;5.88;;
22502;SDS011;11418;48.118;9.992;2022-09-06T04:17:28;9.65;;;5.95;;
22502;SDS011;11418;48.118;9.992;2022-09-06T04:21:29;6.32;;;5.72;;
22502;SDS011;11418;48.118;9.992;2022-09-06T04:25:30;7.50;;;6.47;;
22502;SDS011;11418;48.118;9.992;2022-09-06T04:29:30;6.43;;;5.65;;
22502;SDS011;11418;48.118;9.992;2022-09-06T04:33:31;11.15;;;7.15;;
22502;SDS011;11418;48.118;9.992;2022-09-06T04:37:33;8.25;;;6.32;;
22502;SDS011;11418;48.118;9.992;2022-09-06T04:41:34;8.73;;;5.95;;
22502;SDS011;11418;48.118;9.992;2022-09-06T04:45:34;6.28;;;5.35;;
22502;SDS011;11418;48.118;9.992;2022-09-06T04:49:35;6.43;;;5.65;;
22502;SDS011;11418;48.118;9.992;2022-09-06T04:53:35;6.65;;;5.88;;
22502;SDS011;11418;48.118;9.992;2022-09-06T04:57:36;8.88;;;6.85;;
22502;SDS011;11418;48.118;9.992;2022-09-06T05:01:36;10.13;;;7.60;;
22502;SDS011;11418;48.118;9.992;2022-09-06T05:05:37;9.38;;;7.32;;
22502;SDS011;11418;48.118;9.992;2022-09-06T05:09:37;11.10;;;8.00;;
22502;SDS011;11418;48.118;9.992;2022-09-06T05:13:38;10.35;;;7.57;;
22502;SDS011;11418;48.118;9.992;2022-09-06T05:17:40;12.27;;;7.40;;
22502;SDS011;11418;48.118;9.992;2022-09-06T05:21:40;10.63;;;8.25;;
22502;SDS011;11418;48.118;9.992;2022-09-06T05:25:41;9.57;;;7.45;;
22502;SDS011;11418;48.118;9.992;2022-09-06T05:29:41;10.23;;;7.80;;
22502;SDS011;11418;48.118;9.992;2022-09-06T05:33:42;10.98;;;6.60;;
22502;SDS011;11418;48.118;9.992;2022-09-06T05:37:43;11.50;;;7.85;;
22502;SDS011;11418;48.118;9.992;2022-09-06T05:41:43;13.32;;;7.88;;
22502;SDS011;11418;48.118;9.992;2022-09-06T05:45:44;9.77;;;6.43;;
22502;SDS011;11418;48.118;9.992;2022-09-06T05:49:45;7.13;;;5.95;;
22502;SDS011;11418;48.118;9.992;2022-09-06T05:53:45;8.40;;;6.72;;
22502;SDS011;11418;48.118;9.992;2022-09-06T05:57:46;9.65;;;7.10;;
22502;SDS011;11418;48.118;9.992;2022-09-06T06:01:50;11.00;;;7.88;;
22502;SDS011;11418;48.118;9.992;2022-09-06T06:05:51;11.38;;;7.53;;
22502;SDS011;11418;48.118;9.992;2022-09-06T06:09:52;9.90;;;8.27;;
22502;SDS011;11418;48.118;9.992;2022-09-06T06:13:53;10.52;;;7.70;;
22502;SDS011;11418;48.118;9.992;2022-09-06T06:17:53;8.65;;;7.38;;
22502;SDS011;11418;48.118;9.992;2022-09-06T06:21:54;8.52;;;5.90;;
22502;SDS011;11418;48.118;9.992;2022-09-06T06:25:55;7.45;;;5.85;;
22502;SDS011;11418;48.118;9.992;2022-09-06T06:29:55;8.10;;;5.93;;
22502;SDS011;11418;48.118;9.992;2022-09-06T06:33:56;8.13;;;6.20;;
22502;SDS011;11418;48.118;9.992;2022-09-06T06:37:57;8.23;;;5.85;;
22502;SDS011;11418;48.118;9.992;2022-09-06T06:41:58;8.40;;;5.47;;
22502;SDS011;11418;48.118;9.992;2022-09-06T06:45:58;7.60;;;5.32;;
22502;SDS011;11418;48.118;9.992;2022-09-06T06:54:04;7.72;;;5.40;;
22502;SDS011;11418;48.118;9.992;2022-09-06T06:58:05;8.35;;;5.20;;
22502;SDS011;11418;48.118;9.992;2022-09-06T07:02:05;8.82;;;5.75;;
22502;SDS011;11418;48.118;9.992;2022-09-06T07:06:06;7.38;;;5.07;;
22502;SDS011;11418;48.118;9.992;2022-09-06T07:10:07;6.60;;;5.90;;
22502;SDS011;11418;48.118;9.992;2022-09-06T07:14:08;14.30;;;5.18;;
22502;SDS011;11418;48.118;9.992;2022-09-06T07:18:08;8.48;;;4.95;;
22502;SDS011;11418;48.118;9.992;2022-09-06T07:22:09;5.60;;;5.00;;
22502;SDS011;11418;48.118;9.992;2022-09-06T07:26:17;5.97;;;4.68;;
22502;SDS011;11418;48.118;9.992;2022-09-06T07:30:18;5.97;;;4.75;;
22502;SDS011;11418;48.118;9.992;2022-09-06T07:34:19;7.80;;;4.75;;
22502;SDS011;11418;48.118;9.992;2022-09-06T07:38:20;6.10;;;3.20;;
22502;SDS011;11418;48.118;9.992;2022-09-06T07:42:21;5.68;;;2.58;;
22502;SDS011;11418;48.118;9.992;2022-09-06T07:46:21;5.15;;;1.90;;
22502;SDS011;11418;48.118;9.992;2022-09-06T07:50:22;5.88;;;3.05;;
22502;SDS011;11418;48.118;9.992;2022-09-06T07:54:23;3.25;;;2.30;;
22502;SDS011;11418;48.118;9.992;2022-09-06T07:58:23;4.00;;;2.00;;
22502;SDS011;11418;48.118;9.992;2022-09-06T08:02:24;2.25;;;1.45;;
22502;SDS011;11418;48.118;9.992;2022-09-06T08:06:25;2.58;;;1.30;;
22502;SDS011;11418;48.118;9.992;2022-09-06T08:10:27;2.78;;;1.40;;
22502;SDS011;11418;48.118;9.992;2022-09-06T08:14:28;4.03;;;1.42;;
22502;SDS011;11418;48.118;9.992;2022-09-06T08:18:28;2.70;;;1.20;;
22502;SDS011;11418;48.118;9.992;2022-09-06T08:22:32;8.65;;;1.98;;
22502;SDS011;11418;48.118;9.992;2022-09-06T08:26:33;4.78;;;1.60;;
22502;SDS011;11418;48.118;9.992;2022-09-06T08:30:35;2.28;;;1.50;;
22502;SDS011;11418;48.118;9.992;2022-09-06T08:34:36;3.17;;;1.40;;
22502;SDS011;11418;48.118;9.992;2022-09-06T08:38:36;5.68;;;1.42;;
22502;SDS011;11418;48.118;9.992;2022-09-06T08:42:37;3.92;;;1.70;;
22502;SDS011;11418;48.118;9.992;2022-09-06T08:50:42;3.30;;;1.45;;
22502;SDS011;11418;48.118;9.992;2022-09-06T08:54:53;4.57;;;1.60;;
22502;SDS011;11418;48.118;9.992;2022-09-06T09:07:19;4.28;;;2.03;;
22502;SDS011;11418;48.118;9.992;2022-09-06T09:11:31;4.80;;;1.35;;
22502;SDS011;11418;48.118;9.992;2022-09-06T09:15:35;4.82;;;1.73;;
22502;SDS011;11418;48.118;9.992;2022-09-06T09:19:36;5.63;;;2.00;;
22502;SDS011;11418;48.118;9.992;2022-09-06T09:23:40;3.95;;;2.03;;
22502;SDS011;11418;48.118;9.992;2022-09-06T09:27:41;5.18;;;1.85;;
22502;SDS011;11418;48.118;9.992;2022-09-06T09:31:46;4.80;;;2.15;;
22502;SDS011;11418;48.118;9.992;2022-09-06T09:35:49;4.28;;;2.10;;
22502;SDS011;11418;48.118;9.992;2022-09-06T09:39:51;5.53;;;1.83;;
22502;SDS011;11418;48.118;9.992;2022-09-06T09:44:04;3.78;;;1.90;;
22502;SDS011;11418;48.118;9.992;2022-09-06T09:48:16;4.82;;;1.83;;
22502;SDS011;11418;48.118;9.992;2022-09-06T09:52:26;4.60;;;1.70;;
22502;SDS011;11418;48.118;9.992;2022-09-06T10:05:17;6.25;;;1.88;;
22502;SDS011;11418;48.118;9.992;2022-09-06T10:09:20;12.07;;;4.00;;
22502;SDS011;11418;48.118;9.992;2022-09-06T10:13:29;4.25;;;1.83;;
22502;SDS011;11418;48.118;9.992;2022-09-06T10:21:32;4.45;;;1.80;;
22502;SDS011;11418;48.118;9.992;2022-09-06T10:25:37;3.95;;;1.50;;
22502;SDS011;11418;48.118;9.992;2022-09-06T10:30:00;14.05;;;2.30;;
22502;SDS011;11418;48.118;9.992;2022-09-06T10:34:14;7.10;;;1.98;;
22502;SDS011;11418;48.118;9.992;2022-09-06T10:42:43;9.23;;;2.10;;
22502;SDS011;11418;48.118;9.992;2022-09-06T10:46:53;9.15;;;2.05;;
22502;SDS011;11418;48.118;9.992;2022-09-06T10:55:32;4.68;;;1.85;;
22502;SDS011;11418;48.118;9.992;2022-09-06T10:59:39;8.55;;;2.03;;
22502;SDS011;11418;48.118;9.992;2022-09-06T11:03:50;4.38;;;1.90;;
22502;SDS011;11418;48.118;9.992;2022-09-06T11:08:02;8.70;;;2.00;;
22502;SDS011;11418;48.118;9.992;2022-09-06T11:12:11;8.25;;;2.22;;
22502;SDS011;11418;48.118;9.992;2022-09-06T11:16:40;5.73;;;2.20;;
22502;SDS011;11418;48.118;9.992;2022-09-06T11:25:35;9.60;;;2.13;;
22502;SDS011;11418;48.118;9.992;2022-09-06T11:29:55;5.68;;;1.98;;
22502;SDS011;11418;48.118;9.992;2022-09-06T11:34:08;5.55;;;2.30;;
22502;SDS011;11418;48.118;9.992;2022-09-06T11:54:52;7.60;;;2.00;;
22502;SDS011;11418;48.118;9.992;2022-09-06T11:58:58;7.88;;;2.00;;
22502;SDS011;11418;48.118;9.992;2022-09-06T12:03:07;3.78;;;2.40;;
22502;SDS011;11418;48.118;9.992;2022-09-06T12:07:10;5.85;;;2.10;;
22502;SDS011;11418;48.118;9.992;2022-09-06T12:11:25;5.18;;;2.40;;
22502;SDS011;11418;48.118;9.992;2022-09-06T12:15:42;7.67;;;2.60;;
22502;SDS011;11418;48.118;9.992;2022-09-06T12:19:53;6.72;;;2.08;;
22502;SDS011;11418;48.118;9.992;2022-09-06T12:23:58;11.38;;;2.55;;
22502;SDS011;11418;48.118;9.992;2022-09-06T12:28:06;10.43;;;2.72;;
22502;SDS011;11418;48.118;9.992;2022-09-06T12:32:19;10.20;;;2.65;;
22502;SDS011;11418;48.118;9.992;2022-09-06T12:36:29;8.13;;;2.70;;
22502;SDS011;11418;48.118;9.992;2022-09-06T12:40:31;7.68;;;2.67;;
22502;SDS011;11418;48.118;9.992;2022-09-06T12:44:37;9.60;;;2.47;;
22502;SDS011;11418;48.118;9.992;2022-09-06T12:48:41;6.22;;;2.67;;
22502;SDS011;11418;48.118;9.992;2022-09-06T12:52:58;7.97;;;2.90;;
22502;SDS011;11418;48.118;9.992;2022-09-06T12:57:11;8.02;;;2.88;;
22502;SDS011;11418;48.118;9.992;2022-09-06T13:01:23;6.90;;;2.78;;
22502;SDS011;11418;48.118;9.992;2022-09-06T13:05:32;7.28;;;2.53;;
22502;SDS011;11418;48.118;9.992;2022-09-06T13:09:33;5.72;;;2.95;;
22502;SDS011;11418;48.118;9.992;2022-09-06T13:13:33;6.70;;;2.70;;
22502;SDS011;11418;48.118;9.992;2022-09-06T13:17:34;8.93;;;3.17;;
22502;SDS011;11418;48.118;9.992;2022-09-06T13:21:38;6.65;;;3.03;;
22502;SDS011;11418;48.118;9.992;2022-09-06T13:25:47;7.03;;;2.55;;
22502;SDS011;11418;48.118;9.992;2022-09-06T13:29:56;8.77;;;3.05;;
22502;SDS011;11418;48.118;9.992;2022-09-06T13:33:58;6.40;;;2.90;;
22502;SDS011;11418;48.118;9.992;2022-09-06T13:42:24;6.47;;;2.72;;
22502;SDS011;11418;48.118;9.992;2022-09-06T13:46:35;7.68;;;2.70;;
22502;SDS011;11418;48.118;9.992;2022-09-06T13:50:37;8.80;;;2.75;;
22502;SDS011;11418;48.118;9.992;2022-09-06T13:54:37;5.30;;;2.40;;
22502;SDS011;11418;48.118;9.992;2022-09-06T13:58:38;7.15;;;3.05;;
22502;SDS011;11418;48.118;9.992;2022-09-06T14:02:39;4.40;;;2.47;;
22502;SDS011;11418;48.118;9.992;2022-09-06T14:06:40;9.75;;;2.70;;
22502;SDS011;11418;48.118;9.992;2022-09-06T14:10:41;8.43;;;2.72;;
22502;SDS011;11418;48.118;9.992;2022-09-06T14:14:42;7.63;;;2.45;;
22502;SDS011;11418;48.118;9.992;2022-09-06T14:18:43;5.75;;;2.65;;
22502;SDS011;11418;48.118;9.992;2022-09-06T14:22:44;7.95;;;2.72;;
22502;SDS011;11418;48.118;9.992;2022-09-06T14:26:45;5.68;;;2.70;;
22502;SDS011;11418;48.118;9.992;2022-09-06T14:30:46;8.95;;;2.92;;
22502;SDS011;11418;48.118;9.992;2022-09-06T14:34:46;6.15;;;2.50;;
22502;SDS011;11418;48.118;9.992;2022-09-06T14:38:47;9.30;;;3.03;;
22502;SDS011;11418;48.118;9.992;2022-09-06T14:42:48;10.05;;;3.05;;
22502;SDS011;11418;48.118;9.992;2022-09-06T14:46:49;12.50;;;3.35;;
22502;SDS011;11418;48.118;9.992;2022-09-06T14:50:52;9.05;;;2.97;;
22502;SDS011;11418;48.118;9.992;2022-09-06T14:54:52;8.27;;;2.80;;
22502;SDS011;11418;48.118;9.992;2022-09-06T14:58:53;12.95;;;3.70;;
22502;SDS011;11418;48.118;9.992;2022-09-06T15:02:56;10.43;;;3.53;;
22502;SDS011;11418;48.118;9.992;2022-09-06T15:06:56;8.68;;;3.35;;
22502;SDS011;11418;48.118;9.992;2022-09-06T15:10:57;4.10;;;3.00;;
22502;SDS011;11418;48.118;9.992;2022-09-06T15:14:58;8.98;;;3.28;;
22502;SDS011;11418;48.118;9.992;2022-09-06T15:18:58;7.22;;;2.90;;
22502;SDS011;11418;48.118;9.992;2022-09-06T15:23:01;15.93;;;9.00;;
22502;SDS011;11418;48.118;9.992;2022-09-06T15:27:03;7.22;;;2.85;;
22502;SDS011;11418;48.118;9.992;2022-09-06T15:31:04;11.82;;;5.78;;
22502;SDS011;11418;48.118;9.992;2022-09-06T15:35:06;9.00;;;3.35;;
22502;SDS011;11418;48.118;9.992;2022-09-06T15:39:06;11.18;;;3.30;;
22502;SDS011;11418;48.118;9.992;2022-09-06T15:43:07;9.70;;;3.55;;
22502;SDS011;11418;48.118;9.992;2022-09-06T15:47:07;9.63;;;3.58;;
22502;SDS011;11418;48.118;9.992;2022-09-06T15:51:11;8.32;;;3.20;;
22502;SDS011;11418;48.118;9.992;2022-09-06T15:55:15;10.32;;;3.15;;
22502;SDS011;11418;48.118;9.992;2022-09-06T15:59:33;7.30;;;3.42;;
22502;SDS011;11418;48.118;9.992;2022-09-06T16:03:36;10.95;;;3.30;;
22502;SDS011;11418;48.118;9.992;2022-09-06T16:07:40;7.88;;;3.03;;
22502;SDS011;11418;48.118;9.992;2022-09-06T16:11:43;6.40;;;3.00;;
22502;SDS011;11418;48.118;9.992;2022-09-06T16:15:54;6.40;;;3.25;;
22502;SDS011;11418;48.118;9.992;2022-09-06T16:19:58;9.02;;;3.60;;
22502;SDS011;11418;48.118;9.992;2022-09-06T16:24:01;9.80;;;3.53;;
22502;SDS011;11418;48.118;9.992;2022-09-06T16:28:06;9.65;;;3.88;;
22502;SDS011;11418;48.118;9.992;2022-09-06T16:32:07;14.98;;;4.65;;
22502;SDS011;11418;48.118;9.992;2022-09-06T16:36:08;12.82;;;4.78;;
22502;SDS011;11418;48.118;9.992;2022-09-06T16:40:09;7.88;;;3.83;;
22502;SDS011;11418;48.118;9.992;2022-09-06T16:44:11;10.80;;;3.78;;
22502;SDS011;11418;48.118;9.992;2022-09-06T16:48:15;6.28;;;3.40;;
22502;SDS011;11418;48.118;9.992;2022-09-06T16:52:15;7.63;;;3.95;;
22502;SDS011;11418;48.118;9.992;2022-09-06T16:56:17;10.88;;;3.85;;
22502;SDS011;11418;48.118;9.992;2022-09-06T17:00:20;7.55;;;3.85;;
22502;SDS011;11418;48.118;9.992;2022-09-06T17:04:20;6.38;;;4.15;;
22502;SDS011;11418;48.118;9.992;2022-09-06T17:08:22;10.18;;;4.65;;
22502;SDS011;11418;48.118;9.992;2022-09-06T17:12:22;10.80;;;5.22;;
22502;SDS011;11418;48.118;9.992;2022-09-06T17:16:23;8.73;;;3.97;;
22502;SDS011;11418;48.118;9.992;2022-09-06T17:20:54;8.20;;;4.60;;
22502;SDS011;11418;48.118;9.992;2022-09-06T17:25:04;9.35;;;4.63;;
22502;SDS011;11418;48.118;9.992;2022-09-06T17:29:05;9.52;;;4.45;;
22502;SDS011;11418;48.118;9.992;2022-09-06T17:33:06;7.65;;;4.50;;
22502;SDS011;11418;48.118;9.992;2022-09-06T17:37:07;9.10;;;5.32;;
22502;SDS011;11418;48.118;9.992;2022-09-06T17:41:14;7.75;;;4.38;;
22502;SDS011;11418;48.118;9.992;2022-09-06T17:45:17;8.68;;;4.18;;
22502;SDS011;11418;48.118;9.992;2022-09-06T17:49:17;9.20;;;4.25;;
22502;SDS011;11418;48.118;9.992;2022-09-06T17:53:18;6.93;;;4.28;;
22502;SDS011;11418;48.118;9.992;2022-09-06T17:57:19;9.05;;;4.45;;
22502;SDS011;11418;48.118;9.992;2022-09-06T18:01:20;10.27;;;4.65;;
22502;SDS011;11418;48.118;9.992;2022-09-06T18:05:21;12.95;;;5.50;;
22502;SDS011;11418;48.118;9.992;2022-09-06T18:09:22;9.93;;;5.85;;
22502;SDS011;11418;48.118;9.992;2022-09-06T18:13:23;10.82;;;5.72;;
22502;SDS011;11418;48.118;9.992;2022-09-06T18:17:23;10.50;;;5.75;;
22502;SDS011;11418;48.118;9.992;2022-09-06T18:21:26;7.63;;;5.22;;
22502;SDS011;11418;48.118;9.992;2022-09-06T18:25:28;9.90;;;5.43;;
22502;SDS011;11418;48.118;9.992;2022-09-06T18:29:28;17.10;;;5.97;;
22502;SDS011;11418;48.118;9.992;2022-09-06T18:33:29;10.07;;;5.22;;
22502;SDS011;11418;48.118;9.992;2022-09-06T18:37:29;8.02;;;5.50;;
22502;SDS011;11418;48.118;9.992;2022-09-06T18:41:32;12.82;;;5.35;;
22502;SDS011;11418;48.118;9.992;2022-09-06T18:45:58;9.07;;;5.80;;
22502;SDS011;11418;48.118;9.992;2022-09-06T18:50:02;14.70;;;6.40;;
22502;SDS011;11418;48.118;9.992;2022-09-06T18:58:07;9.88;;;6.50;;
22502;SDS011;11418;48.118;9.992;2022-09-06T19:02:08;9.73;;;6.05;;
22502;SDS011;11418;48.118;9.992;2022-09-06T19:06:09;11.45;;;6.10;;
22502;SDS011;11418;48.118;9.992;2022-09-06T19:10:12;8.88;;;5.78;;
22502;SDS011;11418;48.118;9.992;2022-09-06T19:14:13;8.57;;;5.82;;
22502;SDS011;11418;48.118;9.992;2022-09-06T19:18:13;11.75;;;6.85;;
22502;SDS011;11418;48.118;9.992;2022-09-06T19:22:14;10.13;;;6.38;;
22502;SDS011;11418;48.118;9.992;2022-09-06T19:26:16;10.75;;;6.25;;
22502;SDS011;11418;48.118;9.992;2022-09-06T19:30:18;11.15;;;6.32;;
22502;SDS011;11418;48.118;9.992;2022-09-06T19:34:19;11.65;;;7.85;;
22502;SDS011;11418;48.118;9.992;2022-09-06T19:38:20;10.85;;;6.90;;
22502;SDS011;11418;48.118;9.992;2022-09-06T19:42:21;15.52;;;6.88;;
22502;SDS011;11418;48.118;9.992;2022-09-06T19:46:22;8.77;;;6.70;;
22502;SDS011;11418;48.118;9.992;2022-09-06T19:50:23;10.75;;;7.10;;
22502;SDS011;11418;48.118;9.992;2022-09-06T19:54:23;14.68;;;7.65;;
22502;SDS011;11418;48.118;9.992;2022-09-06T19:58:24;13.90;;;7.90;;
22502;SDS011;11418;48.118;9.992;2022-09-06T20:02:26;10.85;;;7.63;;
22502;SDS011;11418;48.118;9.992;2022-09-06T20:06:27;12.88;;;8.00;;
22502;SDS011;11418;48.118;9.992;2022-09-06T20:10:28;12.23;;;8.25;;
22502;SDS011;11418;48.118;9.992;2022-09-06T20:14:28;15.48;;;8.18;;
22502;SDS011;11418;48.118;9.992;2022-09-06T20:18:29;13.95;;;7.97;;
22502;SDS011;11418;48.118;9.992;2022-09-06T20:22:29;14.27;;;8.23;;
22502;SDS011;11418;48.118;9.992;2022-09-06T20:26:30;14.52;;;8.32;;
22502;SDS011;11418;48.118;9.992;2022-09-06T20:30:30;12.55;;;7.38;;
22502;SDS011;11418;48.118;9.992;2022-09-06T20:34:32;12.82;;;7.97;;
22502;SDS011;11418;48.118;9.992;2022-09-06T20:38:34;14.00;;;8.07;;
22502;SDS011;11418;48.118;9.992;2022-09-06T20:42:36;14.40;;;8.50;;
22502;SDS011;11418;48.118;9.992;2022-09-06T20:46:41;15.13;;;9.20;;
22502;SDS011;11418;48.118;9.992;2022-09-06T20:50:41;11.48;;;8.90;;
22502;SDS011;11418;48.118;9.992;2022-09-06T20:54:42;10.98;;;9.00;;
22502;SDS011;11418;48.118;9.992;2022-09-06T20:58:49;13.80;;;8.82;;
22502;SDS011;11418;48.118;9.992;2022-09-06T21:02:51;14.05;;;7.65;;
22502;SDS011;11418;48.118;9.992;2022-09-06T21:06:51;19.48;;;7.97;;
22502;SDS011;11418;48.118;9.992;2022-09-06T21:10:57;12.35;;;9.20;;
22502;SDS011;11418;48.118;9.992;2022-09-06T21:15:01;10.40;;;7.60;;
22502;SDS011;11418;48.118;9.992;2022-09-06T21:19:03;15.63;;;8.82;;
22502;SDS011;11418;48.118;9.992;2022-09-06T21:23:05;15.63;;;8.55;;
22502;SDS011;11418;48.118;9.992;2022-09-06T21:27:06;15.57;;;8.70;;
22502;SDS011;11418;48.118;9.992;2022-09-06T21:31:08;12.77;;;9.27;;
22502;SDS011;11418;48.118;9.992;2022-09-06T21:35:12;12.80;;;8.00;;
22502;SDS011;11418;48.118;9.992;2022-09-06T21:39:13;11.48;;;6.75;;
22502;SDS011;11418;48.118;9.992;2022-09-06T21:43:14;10.30;;;7.53;;
22502;SDS011;11418;48.118;9.992;2022-09-06T21:47:14;12.27;;;8.80;;
22502;SDS011;11418;48.118;9.992;2022-09-06T21:51:16;16.13;;;8.70;;
22502;SDS011;11418;48.118;9.992;2022-09-06T21:55:18;13.02;;;8.68;;
22502;SDS011;11418;48.118;9.992;2022-09-06T21:59:19;18.50;;;8.65;;
22502;SDS011;11418;48.118;9.992;2022-09-06T22:03:20;13.23;;;7.88;;
22502;SDS011;11418;48.118;9.992;2022-09-06T22:07:20;11.65;;;8.40;;
22502;SDS011;11418;48.118;9.992;2022-09-06T22:11:22;11.10;;;8.80;;
22502;SDS011;11418;48.118;9.992;2022-09-06T22:15:25;10.75;;;8.85;;
22502;SDS011;11418;48.118;9.992;2022-09-06T22:19:26;12.13;;;9.30;;
22502;SDS011;11418;48.118;9.992;2022-09-06T22:23:26;13.43;;;7.88;;
22502;SDS011;11418;48.118;9.992;2022-09-06T22:27:27;13.38;;;8.13;;
22502;SDS011;11418;48.118;9.992;2022-09-06T22:31:28;11.40;;;8.00;;
22502;SDS011;11418;48.118;9.992;2022-09-06T22:35:30;13.18;;;7.78;;
22502;SDS011;11418;48.118;9.992;2022-09-06T22:39:31;14.40;;;9.25;;
22502;SDS011;11418;48.118;9.992;2022-09-06T22:43:31;16.55;;;9.32;;
22502;SDS011;11418;48.118;9.992;2022-09-06T22:47:32;14.27;;;9.70;;
22502;SDS011;11418;48.118;9.992;2022-09-06T22:51:32;15.02;;;9.48;;
22502;SDS011;11418;48.118;9.992;2022-09-06T22:55:33;12.13;;;9.30;;
22502;SDS011;11418;48.118;9.992;2022-09-06T22:59:34;12.25;;;9.80;;
22502;SDS011;11418;48.118;9.992;2022-09-06T23:03:35;13.68;;;8.98;;
22502;SDS011;11418;48.118;9.992;2022-09-06T23:07:35;14.57;;;9.88;;
22502;SDS011;11418;48.118;9.992;2022-09-06T23:11:37;13.77;;;9.25;;
22502;SDS011;11418;48.118;9.992;2022-09-06T23:15:37;11.93;;;8.23;;
22502;SDS011;11418;48.118;9.992;2022-09-06T23:19:44;13.13;;;8.02;;
22502;SDS011;11418;48.118;9.992;2022-09-06T23:23:46;14.00;;;7.68;;
22502;SDS011;11418;48.118;9.992;2022-09-06T23:27:47;8.57;;;6.90;;
22502;SDS011;11418;48.118;9.992;2022-09-06T23:31:48;9.90;;;7.50;;
22502;SDS011;11418;48.118;9.992;2022-09-06T23:35:52;13.35;;;8.30;;
22502;SDS011;11418;48.118;9.992;2022-09-06T23:39:53;12.00;;;7.93;;
22502;SDS011;11418;48.118;9.992;2022-09-06T23:43:53;10.70;;;6.95;;
22502;SDS011;11418;48.118;9.992;2022-09-06T23:47:54;13.25;;;7.18;;
22502;SDS011;11418;48.118;9.992;2022-09-06T23:51:55;11.32;;;7.70;;
22502;SDS011;11418;48.118;9.992;2022-09-06T23:55:55;15.48;;;8.35;;
22502;SDS011;11418;48.118;9.992;2022-09-06T23:59:56;11.75;;;8.57;;
